sensor_id;sensor_type;location;lat;lon;timestamp;temperature;humidity
1880;DHT22;49285;49.002;8.390;2023-12-20T00:00:37;6.80;99.90
1880;DHT22;49285;49.002;8.390;2023-12-20T00:03:03;6.80;99.90
1880;DHT22;49285;49.002;8.390;2023-12-20T00:05:30;6.90;99.90
1880;DHT22;49285;49.002;8.390;2023-12-20T00:07:57;6.80;99.90
1880;DHT22;49285;49.002;8.390;2023-12-20T00:10:23;6.90;99.90
1880;DHT22;49285;49.002;8.390;2023-12-20T00:12:48;6.90;99.90
1880;DHT22;49285;49.002;8.390;2023-12-20T00:15:14;6.90;99.90
1880;DHT22;49285;49.002;8.390;2023-12-20T00:17:39;6.90;99.90
1880;DHT22;49285;49.002;8.390;2023-12-20T00:20:06;6.90;99.90
1880;DHT22;49285;49.002;8.390;2023-12-20T00:22:32;6.90;99.90
1880;DHT22;49285;49.002;8.390;2023-12-20T00:24:57;6.90;99.90
1880;DHT22;49285;49.002;8.390;2023-12-20T00:27:23;6.90;99.90
1880;DHT22;49285;49.002;8.390;2023-12-20T00:29:49;7.00;99.90
1880;DHT22;49285;49.002;8.390;2023-12-20T00:32:15;7.00;99.90
1880;DHT22;49285;49.002;8.390;2023-12-20T00:34:41;7.00;99.90
1880;DHT22;49285;49.002;8.390;2023-12-20T00:37:07;7.00;99.90
1880;DHT22;49285;49.002;8.390;2023-12-20T00:39:32;7.00;99.90
1880;DHT22;49285;49.002;8.390;2023-12-20T00:41:58;7.00;99.90
1880;DHT22;49285;49.002;8.390;2023-12-20T00:44:24;6.90;99.90
1880;DHT22;49285;49.002;8.390;2023-12-20T00:46:49;6.90;99.90
1880;DHT22;49285;49.002;8.390;2023-12-20T00:49:15;7.00;99.90
1880;DHT22;49285;49.002;8.390;2023-12-20T00:51:40;7.00;99.90
1880;DHT22;49285;49.002;8.390;2023-12-20T00:54:06;6.90;99.90
1880;DHT22;49285;49.002;8.390;2023-12-20T00:56:31;6.90;99.90
1880;DHT22;49285;49.002;8.390;2023-12-20T00:58:57;7.00;99.90
1880;DHT22;49285;49.002;8.390;2023-12-20T01:01:22;7.00;99.90
1880;DHT22;49285;49.002;8.390;2023-12-20T01:03:48;7.00;99.90
1880;DHT22;49285;49.002;8.390;2023-12-20T01:06:16;7.10;99.90
1880;DHT22;49285;49.002;8.390;2023-12-20T01:08:42;7.10;99.90
1880;DHT22;49285;49.002;8.390;2023-12-20T01:11:07;7.00;99.90
1880;DHT22;49285;49.002;8.390;2023-12-20T01:13:33;6.90;99.90
1880;DHT22;49285;49.002;8.390;2023-12-20T01:15:58;6.90;99.90
1880;DHT22;49285;49.002;8.390;2023-12-20T01:18:24;6.90;99.90
1880;DHT22;49285;49.002;8.390;2023-12-20T01:20:49;6.90;99.90
1880;DHT22;49285;49.002;8.390;2023-12-20T01:23:15;6.90;99.90
1880;DHT22;49285;49.002;8.390;2023-12-20T01:25:41;6.90;99.90
1880;DHT22;49285;49.002;8.390;2023-12-20T01:28:06;7.00;99.90
1880;DHT22;49285;49.002;8.390;2023-12-20T01:30:32;7.00;99.90
1880;DHT22;49285;49.002;8.390;2023-12-20T01:32:59;7.10;99.90
1880;DHT22;49285;49.002;8.390;2023-12-20T01:35:25;7.10;99.90
1880;DHT22;49285;49.002;8.390;2023-12-20T01:37:50;7.10;99.90
1880;DHT22;49285;49.002;8.390;2023-12-20T01:40:16;7.00;99.90
1880;DHT22;49285;49.002;8.390;2023-12-20T01:42:42;7.10;99.90
1880;DHT22;49285;49.002;8.390;2023-12-20T01:45:08;7.10;99.90
1880;DHT22;49285;49.002;8.390;2023-12-20T01:47:34;7.00;99.90
1880;DHT22;49285;49.002;8.390;2023-12-20T01:49:59;7.00;99.90
1880;DHT22;49285;49.002;8.390;2023-12-20T01:52:25;7.00;99.90
1880;DHT22;49285;49.002;8.390;2023-12-20T01:54:52;7.00;99.90
1880;DHT22;49285;49.002;8.390;2023-12-20T01:57:20;7.10;99.90
1880;DHT22;49285;49.002;8.390;2023-12-20T01:59:46;7.10;99.90
1880;DHT22;49285;49.002;8.390;2023-12-20T02:02:12;7.10;99.90
1880;DHT22;49285;49.002;8.390;2023-12-20T02:04:37;7.20;99.90
1880;DHT22;49285;49.002;8.390;2023-12-20T02:07:03;7.10;99.90
1880;DHT22;49285;49.002;8.390;2023-12-20T02:09:29;7.20;99.90
1880;DHT22;49285;49.002;8.390;2023-12-20T02:11:55;7.20;99.90
1880;DHT22;49285;49.002;8.390;2023-12-20T02:14:21;7.20;99.90
1880;DHT22;49285;49.002;8.390;2023-12-20T02:16:47;7.30;99.90
1880;DHT22;49285;49.002;8.390;2023-12-20T02:19:14;7.30;99.90
1880;DHT22;49285;49.002;8.390;2023-12-20T02:21:40;7.30;99.90
1880;DHT22;49285;49.002;8.390;2023-12-20T02:24:06;7.40;99.90
1880;DHT22;49285;49.002;8.390;2023-12-20T02:26:33;7.40;99.90
1880;DHT22;49285;49.002;8.390;2023-12-20T02:28:59;7.30;99.90
1880;DHT22;49285;49.002;8.390;2023-12-20T02:31:24;7.30;99.90
1880;DHT22;49285;49.002;8.390;2023-12-20T02:33:50;7.30;99.90
1880;DHT22;49285;49.002;8.390;2023-12-20T02:36:15;7.20;99.90
1880;DHT22;49285;49.002;8.390;2023-12-20T02:38:41;7.20;99.90
1880;DHT22;49285;49.002;8.390;2023-12-20T02:41:10;7.30;99.90
1880;DHT22;49285;49.002;8.390;2023-12-20T02:43:35;7.40;99.90
1880;DHT22;49285;49.002;8.390;2023-12-20T02:46:01;7.30;99.90
1880;DHT22;49285;49.002;8.390;2023-12-20T02:48:26;7.40;99.90
1880;DHT22;49285;49.002;8.390;2023-12-20T02:50:52;7.40;99.90
1880;DHT22;49285;49.002;8.390;2023-12-20T02:53:17;7.40;99.90
1880;DHT22;49285;49.002;8.390;2023-12-20T02:55:43;7.40;99.90
1880;DHT22;49285;49.002;8.390;2023-12-20T02:58:08;7.40;99.90
1880;DHT22;49285;49.002;8.390;2023-12-20T03:00:34;7.40;99.90
1880;DHT22;49285;49.002;8.390;2023-12-20T03:02:59;7.40;99.90
1880;DHT22;49285;49.002;8.390;2023-12-20T03:05:25;7.40;99.90
1880;DHT22;49285;49.002;8.390;2023-12-20T03:07:51;7.30;99.90
1880;DHT22;49285;49.002;8.390;2023-12-20T03:10:18;7.40;99.90
1880;DHT22;49285;49.002;8.390;2023-12-20T03:12:44;7.40;99.90
1880;DHT22;49285;49.002;8.390;2023-12-20T03:15:09;7.40;99.90
1880;DHT22;49285;49.002;8.390;2023-12-20T03:17:36;7.30;99.90
1880;DHT22;49285;49.002;8.390;2023-12-20T03:20:02;7.30;99.90
1880;DHT22;49285;49.002;8.390;2023-12-20T03:22:28;7.30;99.90
1880;DHT22;49285;49.002;8.390;2023-12-20T03:24:53;7.30;99.90
1880;DHT22;49285;49.002;8.390;2023-12-20T03:27:19;7.30;99.90
1880;DHT22;49285;49.002;8.390;2023-12-20T03:29:44;7.40;99.90
1880;DHT22;49285;49.002;8.390;2023-12-20T03:32:10;7.40;99.90
1880;DHT22;49285;49.002;8.390;2023-12-20T03:34:35;7.30;99.90
1880;DHT22;49285;49.002;8.390;2023-12-20T03:37:01;7.30;99.90
1880;DHT22;49285;49.002;8.390;2023-12-20T03:39:26;7.30;99.90
1880;DHT22;49285;49.002;8.390;2023-12-20T03:41:52;7.20;99.90
1880;DHT22;49285;49.002;8.390;2023-12-20T03:44:17;7.20;99.90
1880;DHT22;49285;49.002;8.390;2023-12-20T03:46:43;7.30;99.90
1880;DHT22;49285;49.002;8.390;2023-12-20T03:49:08;7.30;99.90
1880;DHT22;49285;49.002;8.390;2023-12-20T03:51:34;7.30;99.90
1880;DHT22;49285;49.002;8.390;2023-12-20T03:53:59;7.20;99.90
1880;DHT22;49285;49.002;8.390;2023-12-20T03:56:25;7.20;99.90
1880;DHT22;49285;49.002;8.390;2023-12-20T03:58:50;7.20;99.90
1880;DHT22;49285;49.002;8.390;2023-12-20T04:01:16;7.20;99.90
1880;DHT22;49285;49.002;8.390;2023-12-20T04:03:42;7.30;99.90
1880;DHT22;49285;49.002;8.390;2023-12-20T04:06:07;7.40;99.90
1880;DHT22;49285;49.002;8.390;2023-12-20T04:08:33;7.40;99.90
1880;DHT22;49285;49.002;8.390;2023-12-20T04:10:58;7.40;99.90
1880;DHT22;49285;49.002;8.390;2023-12-20T04:13:24;7.40;99.90
1880;DHT22;49285;49.002;8.390;2023-12-20T04:15:49;7.50;99.90
1880;DHT22;49285;49.002;8.390;2023-12-20T04:18:16;7.40;99.90
1880;DHT22;49285;49.002;8.390;2023-12-20T04:20:41;7.50;99.90
1880;DHT22;49285;49.002;8.390;2023-12-20T04:23:07;7.50;99.90
1880;DHT22;49285;49.002;8.390;2023-12-20T04:25:32;7.50;99.90
1880;DHT22;49285;49.002;8.390;2023-12-20T04:27:58;7.50;99.90
1880;DHT22;49285;49.002;8.390;2023-12-20T04:30:24;7.40;99.90
1880;DHT22;49285;49.002;8.390;2023-12-20T04:32:49;7.50;99.90
1880;DHT22;49285;49.002;8.390;2023-12-20T04:35:15;7.50;99.90
1880;DHT22;49285;49.002;8.390;2023-12-20T04:37:40;7.50;99.90
1880;DHT22;49285;49.002;8.390;2023-12-20T04:40:06;7.40;99.90
1880;DHT22;49285;49.002;8.390;2023-12-20T04:42:33;7.40;99.90
1880;DHT22;49285;49.002;8.390;2023-12-20T04:44:58;7.50;99.90
1880;DHT22;49285;49.002;8.390;2023-12-20T04:47:24;7.50;99.90
1880;DHT22;49285;49.002;8.390;2023-12-20T04:49:50;7.50;99.90
1880;DHT22;49285;49.002;8.390;2023-12-20T04:52:15;7.40;99.90
1880;DHT22;49285;49.002;8.390;2023-12-20T04:54:41;7.40;99.90
1880;DHT22;49285;49.002;8.390;2023-12-20T04:57:06;7.40;99.90
1880;DHT22;49285;49.002;8.390;2023-12-20T04:59:32;7.50;99.90
1880;DHT22;49285;49.002;8.390;2023-12-20T05:01:57;7.60;99.90
1880;DHT22;49285;49.002;8.390;2023-12-20T05:04:24;7.70;99.90
1880;DHT22;49285;49.002;8.390;2023-12-20T05:06:49;7.60;99.90
1880;DHT22;49285;49.002;8.390;2023-12-20T05:09:15;7.60;99.90
1880;DHT22;49285;49.002;8.390;2023-12-20T05:11:41;7.60;99.90
1880;DHT22;49285;49.002;8.390;2023-12-20T05:14:07;7.60;99.90
1880;DHT22;49285;49.002;8.390;2023-12-20T05:16:32;7.60;99.90
1880;DHT22;49285;49.002;8.390;2023-12-20T05:18:58;7.60;99.90
1880;DHT22;49285;49.002;8.390;2023-12-20T05:21:26;7.60;99.90
1880;DHT22;49285;49.002;8.390;2023-12-20T05:23:51;7.60;99.90
1880;DHT22;49285;49.002;8.390;2023-12-20T05:26:17;7.60;99.90
1880;DHT22;49285;49.002;8.390;2023-12-20T05:28:43;7.60;99.90
1880;DHT22;49285;49.002;8.390;2023-12-20T05:31:08;7.60;99.90
1880;DHT22;49285;49.002;8.390;2023-12-20T05:33:34;7.60;99.90
1880;DHT22;49285;49.002;8.390;2023-12-20T05:36:00;7.60;99.90
1880;DHT22;49285;49.002;8.390;2023-12-20T05:38:25;7.60;99.90
1880;DHT22;49285;49.002;8.390;2023-12-20T05:40:51;7.60;99.90
1880;DHT22;49285;49.002;8.390;2023-12-20T05:43:17;7.60;99.90
1880;DHT22;49285;49.002;8.390;2023-12-20T05:45:42;7.60;99.90
1880;DHT22;49285;49.002;8.390;2023-12-20T05:48:08;7.70;99.90
1880;DHT22;49285;49.002;8.390;2023-12-20T05:50:33;7.70;99.90
1880;DHT22;49285;49.002;8.390;2023-12-20T05:53:00;7.60;99.90
1880;DHT22;49285;49.002;8.390;2023-12-20T05:55:25;7.60;99.90
1880;DHT22;49285;49.002;8.390;2023-12-20T05:57:51;7.80;99.90
1880;DHT22;49285;49.002;8.390;2023-12-20T06:00:17;7.70;99.90
1880;DHT22;49285;49.002;8.390;2023-12-20T06:02:43;7.80;99.90
1880;DHT22;49285;49.002;8.390;2023-12-20T06:05:09;7.80;99.90
1880;DHT22;49285;49.002;8.390;2023-12-20T06:07:35;7.80;99.90
1880;DHT22;49285;49.002;8.390;2023-12-20T06:10:00;7.70;99.90
1880;DHT22;49285;49.002;8.390;2023-12-20T06:12:26;7.80;99.90
1880;DHT22;49285;49.002;8.390;2023-12-20T06:14:57;7.80;99.90
1880;DHT22;49285;49.002;8.390;2023-12-20T06:17:23;7.80;99.90
1880;DHT22;49285;49.002;8.390;2023-12-20T06:19:48;7.90;99.90
1880;DHT22;49285;49.002;8.390;2023-12-20T06:22:15;7.90;99.90
1880;DHT22;49285;49.002;8.390;2023-12-20T06:24:40;7.90;99.90
1880;DHT22;49285;49.002;8.390;2023-12-20T06:27:06;7.90;99.90
1880;DHT22;49285;49.002;8.390;2023-12-20T06:29:31;7.90;99.90
1880;DHT22;49285;49.002;8.390;2023-12-20T06:31:57;7.90;99.90
1880;DHT22;49285;49.002;8.390;2023-12-20T06:34:23;7.90;99.90
1880;DHT22;49285;49.002;8.390;2023-12-20T06:36:48;8.00;99.90
1880;DHT22;49285;49.002;8.390;2023-12-20T06:39:14;8.10;99.90
1880;DHT22;49285;49.002;8.390;2023-12-20T06:41:40;8.10;99.90
1880;DHT22;49285;49.002;8.390;2023-12-20T06:44:05;8.10;99.90
1880;DHT22;49285;49.002;8.390;2023-12-20T06:46:31;8.10;99.90
1880;DHT22;49285;49.002;8.390;2023-12-20T06:48:57;8.00;99.90
1880;DHT22;49285;49.002;8.390;2023-12-20T06:51:22;8.00;99.90
1880;DHT22;49285;49.002;8.390;2023-12-20T06:53:51;8.00;99.90
1880;DHT22;49285;49.002;8.390;2023-12-20T06:56:17;8.00;99.90
1880;DHT22;49285;49.002;8.390;2023-12-20T06:58:42;7.90;99.90
1880;DHT22;49285;49.002;8.390;2023-12-20T07:01:12;7.90;99.90
1880;DHT22;49285;49.002;8.390;2023-12-20T07:03:38;7.80;99.90
1880;DHT22;49285;49.002;8.390;2023-12-20T07:06:04;7.80;99.90
1880;DHT22;49285;49.002;8.390;2023-12-20T07:08:30;7.70;99.90
1880;DHT22;49285;49.002;8.390;2023-12-20T07:10:55;7.80;99.90
1880;DHT22;49285;49.002;8.390;2023-12-20T07:13:21;7.90;99.90
1880;DHT22;49285;49.002;8.390;2023-12-20T07:15:47;7.80;99.90
1880;DHT22;49285;49.002;8.390;2023-12-20T07:18:13;7.70;99.90
1880;DHT22;49285;49.002;8.390;2023-12-20T07:20:39;7.70;99.90
1880;DHT22;49285;49.002;8.390;2023-12-20T07:23:04;7.70;99.90
1880;DHT22;49285;49.002;8.390;2023-12-20T07:25:30;7.70;99.90
1880;DHT22;49285;49.002;8.390;2023-12-20T07:27:58;7.70;99.90
1880;DHT22;49285;49.002;8.390;2023-12-20T07:30:23;7.70;99.90
1880;DHT22;49285;49.002;8.390;2023-12-20T07:32:49;7.80;99.90
1880;DHT22;49285;49.002;8.390;2023-12-20T07:35:17;7.80;99.90
1880;DHT22;49285;49.002;8.390;2023-12-20T07:37:43;7.80;99.90
1880;DHT22;49285;49.002;8.390;2023-12-20T07:40:09;7.80;99.90
1880;DHT22;49285;49.002;8.390;2023-12-20T07:42:35;7.70;99.90
1880;DHT22;49285;49.002;8.390;2023-12-20T07:45:01;7.70;99.90
1880;DHT22;49285;49.002;8.390;2023-12-20T07:47:26;7.70;99.90
1880;DHT22;49285;49.002;8.390;2023-12-20T07:49:52;7.70;99.90
1880;DHT22;49285;49.002;8.390;2023-12-20T07:52:18;7.70;99.90
1880;DHT22;49285;49.002;8.390;2023-12-20T07:54:45;7.80;99.90
1880;DHT22;49285;49.002;8.390;2023-12-20T07:57:11;7.60;99.90
1880;DHT22;49285;49.002;8.390;2023-12-20T07:59:36;7.50;99.90
1880;DHT22;49285;49.002;8.390;2023-12-20T08:02:02;7.60;99.90
1880;DHT22;49285;49.002;8.390;2023-12-20T08:04:28;7.60;99.90
1880;DHT22;49285;49.002;8.390;2023-12-20T08:06:53;7.50;99.90
1880;DHT22;49285;49.002;8.390;2023-12-20T08:09:19;7.50;99.90
1880;DHT22;49285;49.002;8.390;2023-12-20T08:11:46;7.50;99.90
1880;DHT22;49285;49.002;8.390;2023-12-20T08:14:11;7.50;99.90
1880;DHT22;49285;49.002;8.390;2023-12-20T08:16:37;7.40;99.90
1880;DHT22;49285;49.002;8.390;2023-12-20T08:19:02;7.40;99.90
1880;DHT22;49285;49.002;8.390;2023-12-20T08:21:28;7.50;99.90
1880;DHT22;49285;49.002;8.390;2023-12-20T08:23:53;7.40;99.90
1880;DHT22;49285;49.002;8.390;2023-12-20T08:26:19;7.40;99.90
1880;DHT22;49285;49.002;8.390;2023-12-20T08:28:46;7.40;99.90
1880;DHT22;49285;49.002;8.390;2023-12-20T08:31:16;7.30;99.90
1880;DHT22;49285;49.002;8.390;2023-12-20T08:33:43;7.30;99.90
1880;DHT22;49285;49.002;8.390;2023-12-20T08:36:09;7.30;99.90
1880;DHT22;49285;49.002;8.390;2023-12-20T08:38:35;7.30;99.90
1880;DHT22;49285;49.002;8.390;2023-12-20T08:41:01;7.40;99.90
1880;DHT22;49285;49.002;8.390;2023-12-20T08:43:28;7.40;99.90
1880;DHT22;49285;49.002;8.390;2023-12-20T08:45:54;7.40;99.90
1880;DHT22;49285;49.002;8.390;2023-12-20T08:48:19;7.30;99.90
1880;DHT22;49285;49.002;8.390;2023-12-20T08:50:45;7.30;99.90
1880;DHT22;49285;49.002;8.390;2023-12-20T08:53:11;7.30;99.90
1880;DHT22;49285;49.002;8.390;2023-12-20T08:55:37;7.30;99.90
1880;DHT22;49285;49.002;8.390;2023-12-20T08:58:02;7.30;99.90
1880;DHT22;49285;49.002;8.390;2023-12-20T09:00:28;7.30;99.90
1880;DHT22;49285;49.002;8.390;2023-12-20T09:02:55;7.40;99.90
1880;DHT22;49285;49.002;8.390;2023-12-20T09:05:20;7.40;99.90
1880;DHT22;49285;49.002;8.390;2023-12-20T09:07:46;7.40;99.90
1880;DHT22;49285;49.002;8.390;2023-12-20T09:10:11;7.40;99.90
1880;DHT22;49285;49.002;8.390;2023-12-20T09:12:37;7.40;99.90
1880;DHT22;49285;49.002;8.390;2023-12-20T09:15:05;7.40;99.90
1880;DHT22;49285;49.002;8.390;2023-12-20T09:17:31;7.50;99.90
1880;DHT22;49285;49.002;8.390;2023-12-20T09:19:56;7.60;99.90
1880;DHT22;49285;49.002;8.390;2023-12-20T09:22:22;7.60;99.90
1880;DHT22;49285;49.002;8.390;2023-12-20T09:24:48;7.60;99.90
1880;DHT22;49285;49.002;8.390;2023-12-20T09:27:14;7.60;99.90
1880;DHT22;49285;49.002;8.390;2023-12-20T09:29:39;7.60;99.90
1880;DHT22;49285;49.002;8.390;2023-12-20T09:32:05;7.70;99.90
1880;DHT22;49285;49.002;8.390;2023-12-20T09:34:30;7.70;99.90
1880;DHT22;49285;49.002;8.390;2023-12-20T09:36:56;7.70;99.90
1880;DHT22;49285;49.002;8.390;2023-12-20T09:39:22;7.70;99.90
1880;DHT22;49285;49.002;8.390;2023-12-20T09:42:02;7.70;99.90
1880;DHT22;49285;49.002;8.390;2023-12-20T09:44:28;7.70;99.90
1880;DHT22;49285;49.002;8.390;2023-12-20T09:46:55;7.70;99.90
1880;DHT22;49285;49.002;8.390;2023-12-20T09:49:21;7.80;99.90
1880;DHT22;49285;49.002;8.390;2023-12-20T09:51:47;7.60;99.90
1880;DHT22;49285;49.002;8.390;2023-12-20T09:54:20;7.70;99.90
1880;DHT22;49285;49.002;8.390;2023-12-20T09:56:46;7.70;99.90
1880;DHT22;49285;49.002;8.390;2023-12-20T09:59:12;7.70;99.90
1880;DHT22;49285;49.002;8.390;2023-12-20T10:01:39;7.80;99.90
1880;DHT22;49285;49.002;8.390;2023-12-20T10:04:06;7.80;99.90
1880;DHT22;49285;49.002;8.390;2023-12-20T10:06:36;7.80;99.90
1880;DHT22;49285;49.002;8.390;2023-12-20T10:09:02;7.80;99.90
1880;DHT22;49285;49.002;8.390;2023-12-20T10:11:27;7.90;99.90
1880;DHT22;49285;49.002;8.390;2023-12-20T10:14:02;7.90;99.90
1880;DHT22;49285;49.002;8.390;2023-12-20T10:16:28;8.00;99.90
1880;DHT22;49285;49.002;8.390;2023-12-20T10:18:54;8.00;99.90
1880;DHT22;49285;49.002;8.390;2023-12-20T10:21:20;8.10;99.90
1880;DHT22;49285;49.002;8.390;2023-12-20T10:23:46;8.10;99.90
1880;DHT22;49285;49.002;8.390;2023-12-20T10:26:41;8.00;99.90
1880;DHT22;49285;49.002;8.390;2023-12-20T10:29:07;8.10;99.90
1880;DHT22;49285;49.002;8.390;2023-12-20T10:31:33;8.20;99.90
1880;DHT22;49285;49.002;8.390;2023-12-20T10:34:01;8.10;99.90
1880;DHT22;49285;49.002;8.390;2023-12-20T10:36:29;8.10;99.90
1880;DHT22;49285;49.002;8.390;2023-12-20T10:38:56;8.10;99.90
1880;DHT22;49285;49.002;8.390;2023-12-20T10:41:31;8.10;99.90
1880;DHT22;49285;49.002;8.390;2023-12-20T10:44:04;8.10;99.90
1880;DHT22;49285;49.002;8.390;2023-12-20T10:46:34;8.10;99.90
1880;DHT22;49285;49.002;8.390;2023-12-20T10:49:02;8.10;99.90
1880;DHT22;49285;49.002;8.390;2023-12-20T10:51:28;8.20;99.90
1880;DHT22;49285;49.002;8.390;2023-12-20T10:53:55;8.30;99.90
1880;DHT22;49285;49.002;8.390;2023-12-20T10:56:22;8.20;99.90
1880;DHT22;49285;49.002;8.390;2023-12-20T10:58:49;8.30;99.90
1880;DHT22;49285;49.002;8.390;2023-12-20T11:01:16;8.20;99.90
1880;DHT22;49285;49.002;8.390;2023-12-20T11:03:53;8.20;99.90
1880;DHT22;49285;49.002;8.390;2023-12-20T11:06:51;8.20;99.90
1880;DHT22;49285;49.002;8.390;2023-12-20T11:09:25;8.30;99.90
1880;DHT22;49285;49.002;8.390;2023-12-20T11:14:34;8.50;99.90
1880;DHT22;49285;49.002;8.390;2023-12-20T11:17:09;8.50;99.90
1880;DHT22;49285;49.002;8.390;2023-12-20T11:22:21;8.70;99.90
1880;DHT22;49285;49.002;8.390;2023-12-20T11:24:48;8.70;99.90
1880;DHT22;49285;49.002;8.390;2023-12-20T11:27:14;8.60;99.90
1880;DHT22;49285;49.002;8.390;2023-12-20T11:29:40;8.50;99.90
1880;DHT22;49285;49.002;8.390;2023-12-20T11:32:29;8.60;99.90
1880;DHT22;49285;49.002;8.390;2023-12-20T11:34:58;8.60;99.90
1880;DHT22;49285;49.002;8.390;2023-12-20T11:37:37;8.60;99.90
1880;DHT22;49285;49.002;8.390;2023-12-20T11:40:06;8.50;99.90
1880;DHT22;49285;49.002;8.390;2023-12-20T11:42:39;8.50;99.90
1880;DHT22;49285;49.002;8.390;2023-12-20T11:45:24;8.60;99.90
1880;DHT22;49285;49.002;8.390;2023-12-20T11:47:51;8.60;99.90
1880;DHT22;49285;49.002;8.390;2023-12-20T11:50:17;8.50;99.90
1880;DHT22;49285;49.002;8.390;2023-12-20T11:52:44;8.50;99.90
1880;DHT22;49285;49.002;8.390;2023-12-20T11:55:09;8.50;99.90
1880;DHT22;49285;49.002;8.390;2023-12-20T11:57:36;8.50;99.90
1880;DHT22;49285;49.002;8.390;2023-12-20T12:00:02;8.50;99.90
1880;DHT22;49285;49.002;8.390;2023-12-20T12:02:28;8.60;99.90
1880;DHT22;49285;49.002;8.390;2023-12-20T12:04:54;8.50;99.90
1880;DHT22;49285;49.002;8.390;2023-12-20T12:07:21;8.50;99.90
1880;DHT22;49285;49.002;8.390;2023-12-20T12:09:46;8.60;99.90
1880;DHT22;49285;49.002;8.390;2023-12-20T12:12:12;8.60;99.90
1880;DHT22;49285;49.002;8.390;2023-12-20T12:14:38;8.60;99.90
1880;DHT22;49285;49.002;8.390;2023-12-20T12:17:13;8.60;99.90
1880;DHT22;49285;49.002;8.390;2023-12-20T12:19:40;8.50;99.90
1880;DHT22;49285;49.002;8.390;2023-12-20T12:22:10;8.60;99.90
1880;DHT22;49285;49.002;8.390;2023-12-20T12:24:45;8.60;99.90
1880;DHT22;49285;49.002;8.390;2023-12-20T12:27:12;8.60;99.90
1880;DHT22;49285;49.002;8.390;2023-12-20T12:29:38;8.70;99.90
1880;DHT22;49285;49.002;8.390;2023-12-20T12:32:08;8.60;99.90
1880;DHT22;49285;49.002;8.390;2023-12-20T12:34:34;8.60;99.90
1880;DHT22;49285;49.002;8.390;2023-12-20T12:37:01;8.60;99.90
1880;DHT22;49285;49.002;8.390;2023-12-20T12:39:27;8.50;99.90
1880;DHT22;49285;49.002;8.390;2023-12-20T12:41:53;8.60;99.90
1880;DHT22;49285;49.002;8.390;2023-12-20T12:44:19;8.60;99.90
1880;DHT22;49285;49.002;8.390;2023-12-20T12:46:46;8.60;99.90
1880;DHT22;49285;49.002;8.390;2023-12-20T12:49:12;8.50;99.90
1880;DHT22;49285;49.002;8.390;2023-12-20T12:51:37;8.30;99.90
1880;DHT22;49285;49.002;8.390;2023-12-20T12:54:03;8.30;99.90
1880;DHT22;49285;49.002;8.390;2023-12-20T12:56:29;8.30;99.90
1880;DHT22;49285;49.002;8.390;2023-12-20T12:58:55;8.30;99.90
1880;DHT22;49285;49.002;8.390;2023-12-20T13:01:20;8.40;99.90
1880;DHT22;49285;49.002;8.390;2023-12-20T13:03:46;8.40;99.90
1880;DHT22;49285;49.002;8.390;2023-12-20T13:06:12;8.40;99.90
1880;DHT22;49285;49.002;8.390;2023-12-20T13:08:38;8.40;99.90
1880;DHT22;49285;49.002;8.390;2023-12-20T13:11:04;8.50;99.90
1880;DHT22;49285;49.002;8.390;2023-12-20T13:13:30;8.50;99.90
1880;DHT22;49285;49.002;8.390;2023-12-20T13:15:56;8.40;99.90
1880;DHT22;49285;49.002;8.390;2023-12-20T13:18:25;8.50;99.90
1880;DHT22;49285;49.002;8.390;2023-12-20T13:20:50;8.50;99.90
1880;DHT22;49285;49.002;8.390;2023-12-20T13:23:16;8.50;99.90
1880;DHT22;49285;49.002;8.390;2023-12-20T13:25:43;8.50;99.90
1880;DHT22;49285;49.002;8.390;2023-12-20T13:28:11;8.40;99.90
1880;DHT22;49285;49.002;8.390;2023-12-20T13:30:36;8.40;99.90
1880;DHT22;49285;49.002;8.390;2023-12-20T13:33:02;8.40;99.90
1880;DHT22;49285;49.002;8.390;2023-12-20T13:35:27;8.30;99.90
1880;DHT22;49285;49.002;8.390;2023-12-20T13:37:53;8.30;99.90
1880;DHT22;49285;49.002;8.390;2023-12-20T13:40:19;8.30;99.90
1880;DHT22;49285;49.002;8.390;2023-12-20T13:42:44;8.40;99.90
1880;DHT22;49285;49.002;8.390;2023-12-20T13:45:11;8.50;99.90
1880;DHT22;49285;49.002;8.390;2023-12-20T13:47:36;8.40;99.90
1880;DHT22;49285;49.002;8.390;2023-12-20T13:50:03;8.50;99.90
1880;DHT22;49285;49.002;8.390;2023-12-20T13:52:29;8.50;99.90
1880;DHT22;49285;49.002;8.390;2023-12-20T13:54:55;8.50;99.90
1880;DHT22;49285;49.002;8.390;2023-12-20T13:57:20;8.40;99.90
1880;DHT22;49285;49.002;8.390;2023-12-20T13:59:46;8.30;99.90
1880;DHT22;49285;49.002;8.390;2023-12-20T14:02:11;8.20;99.90
1880;DHT22;49285;49.002;8.390;2023-12-20T14:04:37;8.20;99.90
1880;DHT22;49285;49.002;8.390;2023-12-20T14:07:04;8.20;99.90
1880;DHT22;49285;49.002;8.390;2023-12-20T14:09:30;8.30;99.90
1880;DHT22;49285;49.002;8.390;2023-12-20T14:11:56;8.30;99.90
1880;DHT22;49285;49.002;8.390;2023-12-20T14:14:21;8.30;99.90
1880;DHT22;49285;49.002;8.390;2023-12-20T14:16:47;8.40;99.90
1880;DHT22;49285;49.002;8.390;2023-12-20T14:19:12;8.40;99.90
1880;DHT22;49285;49.002;8.390;2023-12-20T14:21:38;8.30;99.90
1880;DHT22;49285;49.002;8.390;2023-12-20T14:24:04;8.40;99.90
1880;DHT22;49285;49.002;8.390;2023-12-20T14:26:30;8.40;99.90
1880;DHT22;49285;49.002;8.390;2023-12-20T14:28:56;8.40;99.90
1880;DHT22;49285;49.002;8.390;2023-12-20T14:31:22;8.40;99.90
1880;DHT22;49285;49.002;8.390;2023-12-20T14:33:49;8.40;99.90
1880;DHT22;49285;49.002;8.390;2023-12-20T14:36:19;8.40;99.90
1880;DHT22;49285;49.002;8.390;2023-12-20T14:38:45;8.40;99.90
1880;DHT22;49285;49.002;8.390;2023-12-20T14:41:12;8.20;99.90
1880;DHT22;49285;49.002;8.390;2023-12-20T14:43:38;8.20;99.90
1880;DHT22;49285;49.002;8.390;2023-12-20T14:46:06;8.30;99.90
1880;DHT22;49285;49.002;8.390;2023-12-20T14:48:32;8.20;99.90
1880;DHT22;49285;49.002;8.390;2023-12-20T14:50:58;8.20;99.90
1880;DHT22;49285;49.002;8.390;2023-12-20T14:53:24;8.20;99.90
1880;DHT22;49285;49.002;8.390;2023-12-20T14:55:50;8.10;99.90
1880;DHT22;49285;49.002;8.390;2023-12-20T14:58:16;8.20;99.90
1880;DHT22;49285;49.002;8.390;2023-12-20T15:00:42;8.10;99.90
1880;DHT22;49285;49.002;8.390;2023-12-20T15:03:09;8.20;99.90
1880;DHT22;49285;49.002;8.390;2023-12-20T15:05:34;8.20;99.90
1880;DHT22;49285;49.002;8.390;2023-12-20T15:08:01;8.20;99.90
1880;DHT22;49285;49.002;8.390;2023-12-20T15:10:26;8.20;99.90
1880;DHT22;49285;49.002;8.390;2023-12-20T15:12:52;8.20;99.90
1880;DHT22;49285;49.002;8.390;2023-12-20T15:15:18;8.20;99.90
1880;DHT22;49285;49.002;8.390;2023-12-20T15:17:44;8.10;99.90
1880;DHT22;49285;49.002;8.390;2023-12-20T15:20:10;8.10;99.90
1880;DHT22;49285;49.002;8.390;2023-12-20T15:22:36;8.10;99.90
1880;DHT22;49285;49.002;8.390;2023-12-20T15:25:03;8.00;99.90
1880;DHT22;49285;49.002;8.390;2023-12-20T15:27:30;8.10;99.90
1880;DHT22;49285;49.002;8.390;2023-12-20T15:29:55;8.10;99.90
1880;DHT22;49285;49.002;8.390;2023-12-20T15:32:21;8.00;99.90
1880;DHT22;49285;49.002;8.390;2023-12-20T15:34:47;8.10;99.90
1880;DHT22;49285;49.002;8.390;2023-12-20T15:37:14;8.00;99.90
1880;DHT22;49285;49.002;8.390;2023-12-20T15:39:41;8.00;99.90
1880;DHT22;49285;49.002;8.390;2023-12-20T15:42:08;8.00;99.90
1880;DHT22;49285;49.002;8.390;2023-12-20T15:44:33;8.00;99.90
1880;DHT22;49285;49.002;8.390;2023-12-20T15:46:59;8.00;99.90
1880;DHT22;49285;49.002;8.390;2023-12-20T15:49:24;8.00;99.90
1880;DHT22;49285;49.002;8.390;2023-12-20T15:51:50;8.00;99.90
1880;DHT22;49285;49.002;8.390;2023-12-20T15:54:15;7.90;99.90
1880;DHT22;49285;49.002;8.390;2023-12-20T15:56:41;8.00;99.90
1880;DHT22;49285;49.002;8.390;2023-12-20T15:59:10;8.00;99.90
1880;DHT22;49285;49.002;8.390;2023-12-20T16:01:36;8.00;99.90